Northwest Alabama Regional Airport
KMSL : now visible

Airfield :











YOU CAN JOIN US ON...

 
LOGIN :

Register | Disclaimer

   EN    FR    IT 

 









Legend :    VFR   Marginal VFR   IFR   Intensive IFR   Very Intensive IFR
Visi :
Ceiling :
>= 8 km
>= 3000ft
5 to 8 km
1000 to 3000 ft
1500m to 5 km
500 to 1000 ft
800 to 1500m
200 to 500 ft
< 800m
< 200 ft
Symbols :   Thunderstorms  Fog  Heavy snow  Heavy precipitations  Wind > 20 kt






- Airport Elevation : 551 ft
- IATA code : MSL


KMSL - Northwest Alabama Regional

CURRENT METAR :
  • 291053Z AUTO 05005KT 10SM CLR 03/M07 A3043 RMK AO2 SLP308 T00281067

EXPIRED METARs :
  • 290953Z AUTO 06007KT 10SM CLR 03/M07 A3041 RMK AO2 SLP297 T00331067
  • 290853Z AUTO 06008KT 10SM CLR 04/M07 A3039 RMK AO2 SLP291 T00391067 58002
  • 290753Z AUTO 06007KT 10SM CLR 04/M07 A3040 RMK AO2 SLP295 T00391072
  • 290653Z AUTO 04008KT 10SM CLR 04/M07 A3039 RMK AO2 SLP290 T00441072

TAF KMSL
Valid from the 29 at 12:00 until the 01 at 12:00 UTC


291120Z 2912/0112 04006KT P6SM SCT240
FM010600 12008G13KT P6SM OVC060
PROB30 0106/0109 4SM -SHRA BR OVC025
FM011000 12007KT 6SM -SHRA BR OVC029
KZME FIR / North America



MET'MAP, your aeronautical weather chart ! - Copyright ORBIFLY December 2007 - Disclaimer

ORBIFLY MET'MAP TEAM :

Programming & Development : Alexandra Zaïnal
Original concept : Baudouin d'Aumeries
Technical & hardware support : Manuel Goepfert
Assistance : Marc-Olivier Méhu




SOURCES & CREDITS :

   NOAA       Earth
Advisory